RJFKRJDC

Guest
Details From RJFK - KAGOSHIMA
To RJDC - YAMAGUCHI UBE
Flight Number -
Tags generated
Created
Modified
Stats Distance 131 nm / 243 km
Max Altitude 13,200 ft / 4,023 m
Waypoints 3
Social Downloads 0
Likes 0
Share VATSIM

Download

Looking for another format? Having issues loading an existing format? Contact us
Advertisement - Login to hide

Notes

Basic altitude profile: - Ascent Rate: 2500ft/min - Ascent Speed: 250kts - Cruise Altitude: 35000ft - Cruise Speed: 420kts - Descent Rate: 1500ft/min - Descent Speed: 250kts Options: - Use NATs: yes - Use PACOTS: yes - Use low airways: yes - Use high airways: yes

Route

RJFK TUJUN RJDC

ID Type Via Altitude Latitude Longitude Leg Dist Tot Dist Heading (true) Name
O RJFK APT - 0 ft / 0 m 31.80340˚ 130.71941˚ - 0 nm - KAGOSHIMA
TUJUN FIX - 13,200 ft / 4,023 m 32.86618˚ 130.91152˚ 64 nm 64 nm 9° / 9° -
O RJDC APT - 0 ft / 0 m 33.92991˚ 131.27877˚ 66 nm 131 nm 16° / 16° YAMAGUCHI UBE

Altitude Profile

Advertisement - Login to hide

RJFK

Details ICAO RJFK (KOJ)
Name KAGOSHIMA
Region Japan
Timezone Asia/Tokyo (UTC+9.0)
Stats Elevation 906 ft / 276 m (AMSL)
Location 31.803400° 130.719405°
Runways 1
Magnetic Variation 6.911° W

METAR

RJFK 130000Z 34010KT 320V020 9999 FEW030 03/M05 Q1024

Decode

TAF

TAF RJFK 122305Z 1300/1406 33014KT 9999 FEW040 BECMG 1400/1403 09005KT

Decode

Departure Runways

ID Width Length Bearing (true) Bearing (mag) Surface Threshold Offset Overrun Length
16 150 ft / 46 m 9,861 ft / 3,006 m 150.11° 157.02° Asphalt 0 ft / 0 m 200 ft / 61 m
34 150 ft / 46 m 9,861 ft / 3,006 m 330.11° 337.02° Asphalt 0 ft / 0 m 200 ft / 61 m

RJDC

Details ICAO RJDC (UBJ)
Name YAMAGUCHI UBE
Region Japan
Timezone Asia/Tokyo (UTC+9.0)
Stats Elevation 23 ft / 7 m (AMSL)
Location 33.929913° 131.278765°
Runways 1
Magnetic Variation 7.561° W

METAR

RJDC 130000Z 34005KT 290V030 9999 FEW025 SCT040 04/M04 Q1025

Decode

TAF

Not found

Destination Runways

ID Width Length Bearing (true) Bearing (mag) Surface Threshold Offset Overrun Length
07 150 ft / 46 m 8,196 ft / 2,498 m 62.16° 69.72° Asphalt 0 ft / 0 m 210 ft / 64 m
25 150 ft / 46 m 8,196 ft / 2,498 m 242.17° 249.73° Asphalt 0 ft / 0 m 210 ft / 64 m

Approach Navaids

Runway Type Ident Frequency Range Bearing (true) Bearing (mag) Slope Elevation
07 Localiser IUB 110.10 MHz 18 nm / 33 km 62.16° 69.73° - 23 ft / 7 m (AMSL)
07 Glidescope IUB 110.10 MHz 10 nm / 19 km 62.16° 69.73° 3.00° 39 ft / 12 m (AMSL)